Terminal Aerodrome Forecast
Issued by NWS

Home | Current Version | Previous Version | Text Only | Print | Product List | Glossary On
Versions: 1 2 3 4 5 6 7 8 9 10 11 12
000
FTUS44 KLZK 312300
TAFHOT
TAF
KHOT 312320Z 0100/0124 14006KT P6SM BKN050 OVC100
     FM010500 18009KT P6SM VCSH SCT020 OVC040 WS020/20045KT
      TEMPO 0108/0112 5SM -RA BR BKN020
     FM011200 19010G18KT 5SM -SHRA BKN012 OVC025
      TEMPO 0113/0117 2SM SHRA BR OVC006
     FM012100 28012G22KT P6SM VCSH BKN020 OVC050=

USA.gov is the U.S. government's official web portal to all federal, state and local government web resources and services.